Time,TemperatureF,DewpointF,PressureIn,WindDirection,WindDirectionDegrees,WindSpeedMPH,WindSpeedGustMPH,Humidity,HourlyPrecipIn,Conditions,Clouds,dailyrainin,SoftwareType,DateUTC
2013-07-03 00:01:00,77.5,73.8,30.04,SE,128,4.0,7.0,88,0.00,,,1.28,meteohub,2013-07-03 04:01:00,
2013-07-03 00:02:00,77.5,73.8,30.04,SE,129,3.0,7.0,88,0.00,,,1.28,meteohub,2013-07-03 04:02:00,
2013-07-03 00:03:00,77.5,73.8,30.04,SE,127,2.0,7.0,88,0.00,,,1.28,meteohub,2013-07-03 04:03:00,
2013-07-03 00:04:00,77.5,73.8,30.04,SE,127,1.0,7.0,88,0.00,,,1.28,meteohub,2013-07-03 04:04:00,
2013-07-03 00:09:00,77.5,73.8,30.04,ESE,111,2.0,7.0,88,0.00,,,0.00,meteohub,2013-07-03 04:09:00,
2013-07-03 00:14:00,77.5,74.1,30.03,East,101,2.0,7.0,89,0.00,,,0.00,meteohub,2013-07-03 04:14:00,
2013-07-03 00:19:00,77.4,73.6,30.03,ESE,113,4.0,8.0,88,0.00,,,0.00,meteohub,2013-07-03 04:19:00,
2013-07-03 00:24:00,77.4,73.6,30.03,SE,136,3.0,8.0,88,0.00,,,0.00,meteohub,2013-07-03 04:24:00,
2013-07-03 00:29:00,77.4,73.9,30.03,South,182,2.0,8.0,89,0.00,,,0.00,meteohub,2013-07-03 04:29:00,
2013-07-03 00:31:00,77.2,73.8,30.02,SSE,166,2.0,7.0,89,0.00,,,0.00,meteohub,2013-07-03 04:31:00,
2013-07-03 00:33:00,77.2,73.8,30.02,ESE,117,4.0,7.0,89,0.00,,,0.00,meteohub,2013-07-03 04:33:00,
2013-07-03 00:39:00,77.2,73.8,30.02,SE,135,1.0,7.0,89,0.00,,,0.00,meteohub,2013-07-03 04:39:00,
2013-07-03 00:44:00,77.0,73.6,30.02,ESE,123,2.0,7.0,89,0.00,,,0.00,meteohub,2013-07-03 04:44:00,
2013-07-03 00:45:00,77.0,73.6,30.02,SE,140,3.0,5.0,89,0.00,,,0.00,meteohub,2013-07-03 04:45:00,
2013-07-03 00:47:00,77.0,73.6,30.02,ESE,112,1.0,5.0,89,0.00,,,0.00,meteohub,2013-07-03 04:47:00,
2013-07-03 00:52:00,76.8,73.6,30.02,ESE,123,4.0,5.0,90,0.00,,,0.00,meteohub,2013-07-03 04:52:00,
2013-07-03 00:53:00,76.8,73.6,30.02,SE,128,1.0,5.0,90,0.00,,,0.00,meteohub,2013-07-03 04:53:00,
2013-07-03 00:58:00,76.8,73.6,30.02,SE,127,1.0,5.0,90,0.00,,,0.00,meteohub,2013-07-03 04:58:00,
2013-07-03 01:03:00,76.8,73.6,30.02,SE,132,1.0,5.0,90,0.00,,,0.00,meteohub,2013-07-03 05:03:00,
2013-07-03 01:08:00,76.6,73.4,30.02,SE,133,2.0,5.0,90,0.00,,,0.00,meteohub,2013-07-03 05:08:00,
2013-07-03 01:13:00,76.6,73.8,30.02,SE,134,3.0,5.0,91,0.00,,,0.00,meteohub,2013-07-03 05:13:00,
2013-07-03 01:19:00,76.6,73.8,30.02,SE,134,3.0,4.0,91,0.00,,,0.00,meteohub,2013-07-03 05:19:00,
2013-07-03 01:20:00,76.6,73.8,30.02,SE,134,2.0,5.0,91,0.00,,,0.00,meteohub,2013-07-03 05:20:00,
2013-07-03 01:25:00,76.8,73.9,30.02,SE,125,3.0,5.0,91,0.00,,,0.00,meteohub,2013-07-03 05:25:00,
2013-07-03 01:30:00,76.6,73.8,30.02,SE,124,1.0,5.0,91,0.00,,,0.00,meteohub,2013-07-03 05:30:00,
2013-07-03 01:35:00,76.6,73.8,30.03,ESE,112,2.0,6.0,91,0.00,,,0.00,meteohub,2013-07-03 05:35:00,
2013-07-03 01:40:00,76.6,73.8,30.03,ESE,105,2.0,6.0,91,0.00,,,0.00,meteohub,2013-07-03 05:40:00,
2013-07-03 01:46:00,76.6,73.8,30.03,ESE,122,1.0,6.0,91,0.00,,,0.00,meteohub,2013-07-03 05:46:00,
2013-07-03 01:51:00,76.6,73.8,30.03,SE,130,5.0,5.0,91,0.00,,,0.00,meteohub,2013-07-03 05:51:00,
2013-07-03 01:56:00,76.6,73.8,30.03,ESE,116,4.0,7.0,91,0.00,,,0.00,meteohub,2013-07-03 05:56:00,
2013-07-03 01:57:00,76.6,73.8,30.03,ESE,115,3.0,7.0,91,0.00,,,0.00,meteohub,2013-07-03 05:57:00,
2013-07-03 01:58:00,76.6,73.8,30.03,ESE,116,3.0,7.0,91,0.00,,,0.00,meteohub,2013-07-03 05:58:00,
2013-07-03 02:02:00,76.5,73.6,30.03,ESE,115,4.0,7.0,91,0.00,,,0.00,meteohub,2013-07-03 06:02:00,
2013-07-03 02:07:00,76.3,73.0,30.03,ESE,106,2.0,7.0,90,0.00,,,0.00,meteohub,2013-07-03 06:07:00,
2013-07-03 02:13:00,76.3,73.0,30.03,ESE,113,3.0,7.0,90,0.00,,,0.00,meteohub,2013-07-03 06:13:00,
2013-07-03 02:17:00,76.1,72.9,30.02,ESE,105,3.0,6.0,90,0.00,,,0.00,meteohub,2013-07-03 06:17:00,
2013-07-03 02:18:00,76.1,72.9,30.02,ESE,105,3.0,6.0,90,0.00,,,0.00,meteohub,2013-07-03 06:18:00,
2013-07-03 02:23:00,75.9,72.9,30.03,East,92,2.0,5.0,90,0.00,,,0.00,meteohub,2013-07-03 06:23:00,
2013-07-03 02:26:00,75.9,72.9,30.02,SE,129,4.0,5.0,90,0.00,,,0.00,meteohub,2013-07-03 06:26:00,
2013-07-03 02:28:00,75.9,73.0,30.02,SE,125,1.0,5.0,91,0.00,,,0.00,meteohub,2013-07-03 06:28:00,
2013-07-03 02:32:00,75.7,72.9,30.02,ESE,121,4.0,5.0,91,0.00,,,0.00,meteohub,2013-07-03 06:32:00,
2013-07-03 02:37:00,75.7,72.9,30.01,ESE,121,2.0,5.0,91,0.00,,,0.00,meteohub,2013-07-03 06:37:00,
2013-07-03 02:42:00,75.7,72.9,30.02,SE,130,2.0,5.0,91,0.00,,,0.00,meteohub,2013-07-03 06:42:00,
2013-07-03 02:43:00,75.7,72.9,30.02,SE,130,2.0,5.0,91,0.00,,,0.00,meteohub,2013-07-03 06:43:00,
2013-07-03 02:48:00,75.6,72.7,30.02,SE,130,2.0,4.0,91,0.00,,,0.00,meteohub,2013-07-03 06:48:00,
2013-07-03 02:54:00,75.6,72.7,30.01,SE,124,2.0,4.0,91,0.00,,,0.00,meteohub,2013-07-03 06:54:00,
2013-07-03 02:56:00,75.6,72.7,30.01,SE,124,3.0,4.0,91,0.00,,,0.00,meteohub,2013-07-03 06:56:00,
2013-07-03 03:01:00,75.6,72.7,30.01,SE,135,3.0,4.0,91,0.00,,,0.00,meteohub,2013-07-03 07:01:00,
2013-07-03 03:07:00,75.6,72.7,30.01,SE,135,2.0,4.0,91,0.00,,,0.00,meteohub,2013-07-03 07:07:00,
2013-07-03 03:12:00,75.7,72.9,30.01,SE,135,2.0,4.0,91,0.00,,,0.00,meteohub,2013-07-03 07:12:00,
2013-07-03 03:17:00,75.7,72.9,30.01,SE,135,1.0,4.0,91,0.00,,,0.00,meteohub,2013-07-03 07:17:00,
2013-07-03 03:22:00,75.7,72.9,30.01,SE,137,3.0,3.0,91,0.00,,,0.00,meteohub,2013-07-03 07:22:00,
2013-07-03 03:27:00,75.7,72.9,30.01,SSE,162,2.0,3.0,91,0.00,,,0.00,meteohub,2013-07-03 07:27:00,
2013-07-03 03:32:00,75.7,72.7,30.01,SE,144,1.0,4.0,90,0.00,,,0.00,meteohub,2013-07-03 07:32:00,
2013-07-03 03:38:00,75.7,72.7,30.01,SE,144,1.0,4.0,90,0.00,,,0.00,meteohub,2013-07-03 07:38:00,
2013-07-03 03:44:00,75.7,72.7,30.01,SE,134,2.0,4.0,90,0.00,,,0.00,meteohub,2013-07-03 07:44:00,
2013-07-03 03:46:00,75.7,72.7,30.01,SE,134,2.0,5.0,90,0.00,,,0.00,meteohub,2013-07-03 07:46:00,
2013-07-03 03:51:00,75.9,72.9,30.01,SE,134,2.0,5.0,90,0.00,,,0.00,meteohub,2013-07-03 07:51:00,
2013-07-03 03:52:00,75.9,72.9,30.01,SE,134,1.0,5.0,90,0.00,,,0.00,meteohub,2013-07-03 07:52:00,
2013-07-03 03:57:00,75.9,72.9,30.01,SE,134,1.0,4.0,90,0.00,,,0.00,meteohub,2013-07-03 07:57:00,
2013-07-03 04:02:00,75.9,73.0,30.01,SE,134,0.0,3.0,91,0.00,,,0.00,meteohub,2013-07-03 08:02:00,
2013-07-03 04:06:00,75.9,73.0,30.01,SSE,157,2.0,4.0,91,0.00,,,0.00,meteohub,2013-07-03 08:06:00,
2013-07-03 04:11:00,75.7,72.9,30.01,SE,146,2.0,4.0,91,0.00,,,0.00,meteohub,2013-07-03 08:11:00,
2013-07-03 04:15:00,75.9,73.0,30.01,SE,146,1.0,4.0,91,0.00,,,0.00,meteohub,2013-07-03 08:15:00,
2013-07-03 04:18:00,75.9,73.0,30.01,SE,130,2.0,5.0,91,0.00,,,0.00,meteohub,2013-07-03 08:18:00,
2013-07-03 04:24:00,75.7,72.7,30.01,SE,131,3.0,5.0,90,0.00,,,0.00,meteohub,2013-07-03 08:24:00,
2013-07-03 04:29:00,75.9,72.9,30.01,SE,131,2.0,5.0,90,0.00,,,0.00,meteohub,2013-07-03 08:29:00,
2013-07-03 04:34:00,75.9,73.0,30.01,SE,131,2.0,5.0,91,0.00,,,0.00,meteohub,2013-07-03 08:34:00,
2013-07-03 04:40:00,75.9,73.0,30.01,SE,131,2.0,4.0,91,0.00,,,0.00,meteohub,2013-07-03 08:40:00,
2013-07-03 04:46:00,75.9,72.9,30.01,ESE,117,3.0,4.0,90,0.00,,,0.00,meteohub,2013-07-03 08:46:00,
2013-07-03 04:47:00,75.9,72.9,30.01,ESE,117,1.0,4.0,90,0.00,,,0.00,meteohub,2013-07-03 08:47:00,
2013-07-03 04:52:00,75.9,72.9,30.01,ESE,120,1.0,4.0,90,0.00,,,0.00,meteohub,2013-07-03 08:52:00,
2013-07-03 04:55:00,75.9,72.9,30.01,ESE,120,1.0,4.0,90,0.00,,,0.00,meteohub,2013-07-03 08:55:00,
2013-07-03 04:56:00,75.9,72.9,30.01,ESE,120,2.0,4.0,90,0.00,,,0.00,meteohub,2013-07-03 08:56:00,
2013-07-03 05:02:00,75.7,72.7,30.01,East,97,3.0,4.0,90,0.00,,,0.00,meteohub,2013-07-03 09:02:00,
2013-07-03 05:07:00,75.7,72.7,30.01,East,101,2.0,5.0,90,0.00,,,0.00,meteohub,2013-07-03 09:07:00,
2013-07-03 05:12:00,75.9,72.9,30.01,ESE,115,3.0,5.0,90,0.00,,,0.00,meteohub,2013-07-03 09:12:00,
2013-07-03 05:17:00,75.9,72.5,30.01,ESE,114,2.0,5.0,89,0.00,,,0.00,meteohub,2013-07-03 09:17:00,
2013-07-03 05:22:00,75.9,72.5,30.01,SE,133,3.0,5.0,89,0.00,,,0.00,meteohub,2013-07-03 09:22:00,
2013-07-03 05:27:00,76.1,72.7,30.01,ESE,118,3.0,5.0,89,0.00,,,0.00,meteohub,2013-07-03 09:27:00,
2013-07-03 05:32:00,76.1,72.7,30.01,ESE,111,4.0,5.0,89,0.00,,,0.00,meteohub,2013-07-03 09:32:00,
2013-07-03 05:37:00,76.1,72.7,30.01,ESE,110,3.0,5.0,89,0.00,,,0.00,meteohub,2013-07-03 09:37:00,
2013-07-03 05:41:00,76.1,72.7,30.00,SE,131,4.0,5.0,89,0.00,,,0.00,meteohub,2013-07-03 09:41:00,
2013-07-03 05:47:00,76.3,72.9,30.01,East,101,6.0,7.0,89,0.00,,,0.00,meteohub,2013-07-03 09:47:00,
2013-07-03 05:50:00,76.3,72.9,30.01,ESE,121,4.0,7.0,89,0.00,,,0.00,meteohub,2013-07-03 09:50:00,
2013-07-03 05:52:00,76.3,72.9,30.01,ESE,117,4.0,7.0,89,0.00,,,0.00,meteohub,2013-07-03 09:52:00,
2013-07-03 05:57:00,76.3,72.9,30.01,SE,141,3.0,7.0,89,0.00,,,0.00,meteohub,2013-07-03 09:57:00,
2013-07-03 06:02:00,76.5,73.0,30.01,ESE,121,2.0,7.0,89,0.00,,,0.00,meteohub,2013-07-03 10:02:00,
2013-07-03 06:07:00,76.5,73.0,30.01,ESE,117,4.0,7.0,89,0.00,,,0.00,meteohub,2013-07-03 10:07:00,
2013-07-03 06:12:00,76.5,73.0,30.01,SE,136,4.0,5.0,89,0.00,,,0.00,meteohub,2013-07-03 10:12:00,
2013-07-03 06:18:00,76.5,73.0,30.01,SE,126,2.0,7.0,89,0.00,,,0.00,meteohub,2013-07-03 10:18:00,
2013-07-03 06:24:00,76.6,73.4,30.01,ESE,103,2.0,7.0,90,0.00,,,0.00,meteohub,2013-07-03 10:24:00,
2013-07-03 06:29:00,76.6,73.4,30.01,SE,130,2.0,5.0,90,0.00,,,0.00,meteohub,2013-07-03 10:29:00,
2013-07-03 06:32:00,76.6,73.4,30.01,SE,130,2.0,5.0,90,0.00,,,0.00,meteohub,2013-07-03 10:32:00,
2013-07-03 06:37:00,76.6,73.4,30.01,ESE,116,3.0,5.0,90,0.00,,,0.00,meteohub,2013-07-03 10:37:00,
2013-07-03 06:42:00,76.6,73.4,30.01,ESE,119,2.0,5.0,90,0.00,,,0.00,meteohub,2013-07-03 10:42:00,
2013-07-03 06:47:00,76.6,73.4,30.01,ESE,119,1.0,5.0,90,0.00,,,0.00,meteohub,2013-07-03 10:47:00,
2013-07-03 06:50:00,76.6,73.4,30.01,ESE,118,2.0,4.0,90,0.00,,,0.00,meteohub,2013-07-03 10:50:00,
2013-07-03 06:56:00,76.6,73.4,30.01,SE,131,2.0,4.0,90,0.00,,,0.00,meteohub,2013-07-03 10:56:00,
2013-07-03 06:59:00,76.8,73.6,30.02,SE,135,2.0,4.0,90,0.00,,,0.00,meteohub,2013-07-03 10:59:00,
2013-07-03 07:01:00,76.8,73.6,30.02,South,171,2.0,6.0,90,0.00,,,0.00,meteohub,2013-07-03 11:01:00,
2013-07-03 07:06:00,76.8,73.6,30.02,SE,126,3.0,6.0,90,0.00,,,0.00,meteohub,2013-07-03 11:06:00,
2013-07-03 07:08:00,77.0,73.8,30.02,SE,128,4.0,6.0,90,0.00,,,0.00,meteohub,2013-07-03 11:08:00,
2013-07-03 07:09:00,77.0,73.8,30.02,SE,128,3.0,6.0,90,0.00,,,0.00,meteohub,2013-07-03 11:09:00,
2013-07-03 07:14:00,77.2,73.9,30.02,SE,138,3.0,5.0,90,0.00,,,0.00,meteohub,2013-07-03 11:14:00,
2013-07-03 07:19:00,77.4,74.1,30.02,SE,140,4.0,5.0,90,0.00,,,0.00,meteohub,2013-07-03 11:19:00,
2013-07-03 07:23:00,77.4,74.1,30.02,ESE,121,1.0,5.0,90,0.00,,,0.00,meteohub,2013-07-03 11:23:00,
2013-07-03 07:25:00,77.4,74.1,30.02,ESE,120,4.0,7.0,90,0.00,,,0.00,meteohub,2013-07-03 11:25:00,
2013-07-03 07:30:00,77.5,74.3,30.02,East,99,3.0,7.0,90,0.00,,,0.00,meteohub,2013-07-03 11:30:00,
2013-07-03 07:36:00,77.5,74.3,30.02,ESE,103,3.0,7.0,90,0.00,,,0.00,meteohub,2013-07-03 11:36:00,
2013-07-03 07:41:00,77.5,74.3,30.03,ESE,106,3.0,7.0,90,0.00,,,0.00,meteohub,2013-07-03 11:41:00,
2013-07-03 07:46:00,77.4,74.1,30.03,ESE,117,2.0,7.0,90,0.00,,,0.00,meteohub,2013-07-03 11:46:00,
2013-07-03 07:47:00,77.4,74.1,30.03,ESE,117,3.0,7.0,90,0.00,,,0.00,meteohub,2013-07-03 11:47:00,
2013-07-03 07:52:00,77.5,74.3,30.04,ESE,117,3.0,8.0,90,0.00,,,0.00,meteohub,2013-07-03 11:52:00,
2013-07-03 07:57:00,77.5,74.3,30.04,East,98,3.0,8.0,90,0.00,,,0.00,meteohub,2013-07-03 11:57:00,
2013-07-03 08:00:00,77.5,74.3,30.04,ESE,115,3.0,8.0,90,0.00,,,0.00,meteohub,2013-07-03 12:00:00,
2013-07-03 08:02:00,77.5,74.3,30.04,SSE,162,4.0,8.0,90,0.00,,,0.00,meteohub,2013-07-03 12:02:00,
2013-07-03 08:07:00,77.7,74.5,30.04,ESE,123,4.0,8.0,90,0.00,,,0.00,meteohub,2013-07-03 12:07:00,
2013-07-03 08:13:00,77.9,74.7,30.04,East,98,2.0,7.0,90,0.00,,,0.00,meteohub,2013-07-03 12:13:00,
2013-07-03 08:14:00,77.9,74.7,30.04,East,93,3.0,7.0,90,0.00,,,0.00,meteohub,2013-07-03 12:14:00,
2013-07-03 08:17:00,78.1,74.5,30.04,East,100,1.0,7.0,89,0.00,,,0.00,meteohub,2013-07-03 12:17:00,
2013-07-03 08:22:00,78.4,74.8,30.04,SE,125,4.0,7.0,89,0.00,,,0.00,meteohub,2013-07-03 12:22:00,
2013-07-03 08:25:00,78.6,74.8,30.04,East,101,3.0,7.0,88,0.00,,,0.00,meteohub,2013-07-03 12:25:00,
2013-07-03 08:30:00,79.0,75.2,30.05,ESE,107,3.0,7.0,88,0.00,,,0.00,meteohub,2013-07-03 12:30:00,
2013-07-03 08:35:00,79.2,75.0,30.04,East,101,5.0,7.0,87,0.00,,,0.00,meteohub,2013-07-03 12:35:00,
2013-07-03 08:40:00,79.2,75.0,30.05,ESE,105,3.0,6.0,87,0.00,,,0.00,meteohub,2013-07-03 12:40:00,
2013-07-03 08:46:00,79.2,75.4,30.05,ESE,105,3.0,6.0,88,0.00,,,0.00,meteohub,2013-07-03 12:46:00,
2013-07-03 08:48:00,79.2,75.4,30.04,ESE,105,3.0,6.0,88,0.00,,,0.00,meteohub,2013-07-03 12:48:00,
2013-07-03 08:54:00,79.2,75.4,30.04,ESE,112,3.0,6.0,88,0.00,,,0.00,meteohub,2013-07-03 12:54:00,
2013-07-03 08:59:00,79.2,75.4,30.04,SE,129,5.0,6.0,88,0.00,,,0.00,meteohub,2013-07-03 12:59:00,
2013-07-03 09:04:00,79.0,75.2,30.05,East,96,1.0,7.0,88,0.00,,,0.00,meteohub,2013-07-03 13:04:00,
2013-07-03 09:09:00,79.2,75.4,30.05,ESE,118,4.0,7.0,88,0.00,,,0.00,meteohub,2013-07-03 13:09:00,
2013-07-03 09:15:00,79.5,75.4,30.05,ESE,112,5.0,8.0,87,0.00,,,0.00,meteohub,2013-07-03 13:15:00,
2013-07-03 09:20:00,79.7,75.2,30.05,SE,146,5.0,9.0,86,0.00,,,0.00,meteohub,2013-07-03 13:20:00,
2013-07-03 09:25:00,79.9,75.4,30.05,SE,126,5.0,9.0,86,0.00,,,0.00,meteohub,2013-07-03 13:25:00,
2013-07-03 09:26:00,79.9,75.4,30.05,ESE,105,4.0,9.0,86,0.00,,,0.00,meteohub,2013-07-03 13:26:00,
2013-07-03 09:27:00,79.9,75.4,30.05,ESE,105,3.0,9.0,86,0.00,,,0.00,meteohub,2013-07-03 13:27:00,
2013-07-03 09:32:00,80.1,75.6,30.05,SE,124,2.0,9.0,86,0.00,,,0.00,meteohub,2013-07-03 13:32:00,
2013-07-03 09:37:00,80.4,75.9,30.05,ESE,111,3.0,8.0,86,0.00,,,0.00,meteohub,2013-07-03 13:37:00,
2013-07-03 09:42:00,80.4,75.9,30.05,SE,144,5.0,7.0,86,0.00,,,0.00,meteohub,2013-07-03 13:42:00,
2013-07-03 09:47:00,80.4,75.9,30.05,ESE,119,2.0,8.0,86,0.00,,,0.00,meteohub,2013-07-03 13:47:00,
2013-07-03 09:53:00,80.6,75.7,30.05,East,94,2.0,8.0,85,0.00,,,0.00,meteohub,2013-07-03 13:53:00,
2013-07-03 09:58:00,81.0,76.1,30.05,SE,131,3.0,7.0,85,0.00,,,0.00,meteohub,2013-07-03 13:58:00,
2013-07-03 10:03:00,81.1,76.3,30.05,ESE,115,3.0,7.0,85,0.00,,,0.00,meteohub,2013-07-03 14:03:00,
2013-07-03 10:07:00,81.1,76.3,30.04,East,93,3.0,7.0,85,0.00,,,0.00,meteohub,2013-07-03 14:07:00,
2013-07-03 10:09:00,81.1,75.9,30.05,SSE,147,2.0,7.0,84,0.00,,,0.00,meteohub,2013-07-03 14:09:00,
2013-07-03 10:14:00,81.3,76.1,30.05,East,94,5.0,7.0,84,0.00,,,0.00,meteohub,2013-07-03 14:14:00,
2013-07-03 10:20:00,81.5,76.3,30.05,SSE,158,2.0,7.0,84,0.00,,,0.00,meteohub,2013-07-03 14:20:00,
2013-07-03 10:25:00,81.7,76.3,30.05,ESE,121,4.0,7.0,84,0.00,,,0.00,meteohub,2013-07-03 14:25:00,
2013-07-03 10:30:00,81.7,76.3,30.05,SE,130,3.0,7.0,84,0.00,,,0.00,meteohub,2013-07-03 14:30:00,
2013-07-03 10:35:00,81.9,76.1,30.05,ESE,107,5.0,8.0,83,0.00,,,0.00,meteohub,2013-07-03 14:35:00,
2013-07-03 10:39:00,81.9,76.1,30.05,SE,129,2.0,8.0,83,0.00,,,0.00,meteohub,2013-07-03 14:39:00,
2013-07-03 10:41:00,82.0,76.3,30.05,SE,137,4.0,8.0,83,0.00,,,0.00,meteohub,2013-07-03 14:41:00,
2013-07-03 10:46:00,82.2,76.5,30.05,SE,133,5.0,8.0,83,0.00,,,0.00,meteohub,2013-07-03 14:46:00,
2013-07-03 10:52:00,82.6,76.5,30.05,East,98,3.0,8.0,82,0.00,,,0.00,meteohub,2013-07-03 14:52:00,
2013-07-03 10:57:00,82.6,76.5,30.05,ESE,112,4.0,7.0,82,0.00,,,0.00,meteohub,2013-07-03 14:57:00,
2013-07-03 11:03:00,82.8,76.3,30.05,ESE,104,3.0,7.0,81,0.00,,,0.00,meteohub,2013-07-03 15:03:00,
2013-07-03 11:04:00,82.8,76.3,30.05,East,94,6.0,7.0,81,0.00,,,0.00,meteohub,2013-07-03 15:04:00,
2013-07-03 11:08:00,82.9,76.5,30.05,East,98,5.0,7.0,81,0.00,,,0.00,meteohub,2013-07-03 15:08:00,
2013-07-03 11:14:00,83.1,76.3,30.05,ESE,113,2.0,7.0,80,0.00,,,0.00,meteohub,2013-07-03 15:14:00,
2013-07-03 11:16:00,83.5,76.6,30.05,ESE,119,5.0,8.0,80,0.00,,,0.00,meteohub,2013-07-03 15:16:00,
2013-07-03 11:22:00,83.7,76.5,30.05,East,89,5.0,8.0,79,0.00,,,0.00,meteohub,2013-07-03 15:22:00,
2013-07-03 11:27:00,83.7,76.5,30.05,SE,126,5.0,8.0,79,0.00,,,0.00,meteohub,2013-07-03 15:27:00,
2013-07-03 11:32:00,83.8,76.6,30.05,ESE,108,2.0,8.0,79,0.00,,,0.00,meteohub,2013-07-03 15:32:00,
2013-07-03 11:34:00,83.8,76.3,30.05,SSE,151,4.0,8.0,78,0.00,,,0.00,meteohub,2013-07-03 15:34:00,
2013-07-03 11:40:00,84.0,76.8,30.05,ESE,117,2.0,8.0,79,0.00,,,0.00,meteohub,2013-07-03 15:40:00,
2013-07-03 11:45:00,84.4,76.5,30.05,ESE,113,1.0,7.0,77,0.00,,,0.00,meteohub,2013-07-03 15:45:00,
2013-07-03 11:50:00,84.6,76.1,30.05,ESE,110,2.0,7.0,76,0.00,,,0.00,meteohub,2013-07-03 15:50:00,
2013-07-03 11:52:00,84.6,76.1,30.05,ESE,111,3.0,7.0,76,0.00,,,0.00,meteohub,2013-07-03 15:52:00,
2013-07-03 11:56:00,84.6,76.1,30.04,ESE,117,1.0,7.0,76,0.00,,,0.00,meteohub,2013-07-03 15:56:00,
2013-07-03 12:01:00,84.7,76.6,30.04,SSE,149,2.0,7.0,77,0.00,,,0.00,meteohub,2013-07-03 16:01:00,
2013-07-03 12:07:00,84.7,75.9,30.05,ESE,115,2.0,7.0,75,0.00,,,0.00,meteohub,2013-07-03 16:07:00,
2013-07-03 12:12:00,84.9,76.5,30.05,ESE,112,3.0,5.0,76,0.00,,,0.00,meteohub,2013-07-03 16:12:00,
2013-07-03 12:17:00,85.3,76.8,30.05,East,88,3.0,5.0,76,0.00,,,0.00,meteohub,2013-07-03 16:17:00,
2013-07-03 12:22:00,85.5,76.6,30.05,ESE,108,3.0,5.0,75,0.00,,,0.00,meteohub,2013-07-03 16:22:00,
2013-07-03 12:27:00,85.8,77.0,30.04,East,99,3.0,6.0,75,0.00,,,0.00,meteohub,2013-07-03 16:27:00,
2013-07-03 12:32:00,86.7,76.6,30.04,SSE,155,2.0,7.0,72,0.00,,,0.00,meteohub,2013-07-03 16:32:00,
2013-07-03 12:38:00,87.6,76.6,30.04,ESE,121,2.0,7.0,70,0.00,,,0.00,meteohub,2013-07-03 16:38:00,
2013-07-03 12:43:00,88.3,77.4,30.04,SE,141,4.0,8.0,70,0.00,,,0.00,meteohub,2013-07-03 16:43:00,
2013-07-03 12:49:00,88.5,76.1,30.04,SE,135,4.0,8.0,67,0.00,,,0.00,meteohub,2013-07-03 16:49:00,
2013-07-03 12:54:00,88.9,77.4,30.04,ESE,103,4.0,8.0,69,0.00,,,0.00,meteohub,2013-07-03 16:54:00,
2013-07-03 12:59:00,89.2,77.7,30.04,SE,145,3.0,8.0,69,0.00,,,0.00,meteohub,2013-07-03 16:59:00,
2013-07-03 13:05:00,90.0,77.5,30.03,SE,126,2.0,8.0,67,0.00,,,0.00,meteohub,2013-07-03 17:05:00,
2013-07-03 13:10:00,90.1,77.7,30.03,East,90,7.0,7.0,67,0.00,,,0.00,meteohub,2013-07-03 17:10:00,
2013-07-03 13:15:00,90.3,77.4,30.03,East,101,2.0,9.0,66,0.00,,,0.00,meteohub,2013-07-03 17:15:00,
2013-07-03 13:21:00,89.8,77.4,30.03,ESE,106,1.0,9.0,67,0.00,,,0.00,meteohub,2013-07-03 17:21:00,
2013-07-03 13:27:00,89.4,77.5,30.03,ESE,103,1.0,9.0,68,0.00,,,0.00,meteohub,2013-07-03 17:27:00,
2013-07-03 13:32:00,89.4,77.5,30.03,ESE,108,3.0,9.0,68,0.00,,,0.00,meteohub,2013-07-03 17:32:00,
2013-07-03 13:37:00,89.4,77.5,30.02,East,97,1.0,7.0,68,0.00,,,0.00,meteohub,2013-07-03 17:37:00,
2013-07-03 13:42:00,89.6,77.2,30.02,East,82,3.0,7.0,67,0.00,,,0.00,meteohub,2013-07-03 17:42:00,
2013-07-03 13:48:00,89.4,77.5,30.02,ESE,118,3.0,7.0,68,0.00,,,0.00,meteohub,2013-07-03 17:48:00,
2013-07-03 13:54:00,89.2,76.8,30.02,ESE,103,4.0,7.0,67,0.00,,,0.00,meteohub,2013-07-03 17:54:00,
2013-07-03 13:59:00,89.2,76.5,30.01,ESE,103,3.0,7.0,66,0.00,,,0.00,meteohub,2013-07-03 17:59:00,
2013-07-03 14:04:00,89.2,76.8,30.01,ESE,107,4.0,10.0,67,0.00,,,0.00,meteohub,2013-07-03 18:04:00,
2013-07-03 14:10:00,89.8,75.9,30.01,ENE,61,4.0,10.0,64,0.00,,,0.00,meteohub,2013-07-03 18:10:00,
2013-07-03 14:15:00,90.1,75.9,30.01,ESE,115,4.0,9.0,63,0.00,,,0.00,meteohub,2013-07-03 18:15:00,
2013-07-03 14:20:00,89.8,75.6,30.01,ESE,119,4.0,9.0,63,0.00,,,0.00,meteohub,2013-07-03 18:20:00,
2013-07-03 14:25:00,89.8,75.6,30.01,East,82,5.0,9.0,63,0.00,,,0.00,meteohub,2013-07-03 18:25:00,
2013-07-03 14:31:00,89.8,75.9,30.00,ENE,76,4.0,9.0,64,0.00,,,0.00,meteohub,2013-07-03 18:31:00,
2013-07-03 14:36:00,90.3,75.9,30.00,SSE,153,2.0,9.0,63,0.00,,,0.00,meteohub,2013-07-03 18:36:00,
2013-07-03 14:41:00,89.8,75.9,29.99,SE,146,2.0,9.0,64,0.00,,,0.00,meteohub,2013-07-03 18:41:00,
2013-07-03 14:47:00,89.1,75.7,29.99,South,175,3.0,7.0,65,0.00,,,0.00,meteohub,2013-07-03 18:47:00,
2013-07-03 14:52:00,87.6,77.5,29.99,SE,133,4.0,7.0,72,0.00,,,0.00,meteohub,2013-07-03 18:52:00,
2013-07-03 14:57:00,85.6,77.2,29.99,SSE,148,1.0,7.0,76,0.01,,,0.01,meteohub,2013-07-03 18:57:00,
2013-07-03 15:02:00,85.6,76.8,29.99,ESE,120,5.0,7.0,75,0.01,,,0.01,meteohub,2013-07-03 19:02:00,
2013-07-03 15:08:00,86.0,76.8,29.99,SE,127,4.0,7.0,74,0.01,,,0.01,meteohub,2013-07-03 19:08:00,
2013-07-03 15:13:00,86.7,77.0,29.99,SSE,148,2.0,7.0,73,0.01,,,0.01,meteohub,2013-07-03 19:13:00,
2013-07-03 15:19:00,88.0,77.4,29.99,ESE,111,4.0,6.0,71,0.01,,,0.01,meteohub,2013-07-03 19:19:00,
2013-07-03 15:24:00,88.2,75.7,29.98,East,95,5.0,6.0,67,0.01,,,0.01,meteohub,2013-07-03 19:24:00,
2013-07-03 15:29:00,87.6,75.7,29.99,ESE,118,2.0,7.0,68,0.01,,,0.01,meteohub,2013-07-03 19:29:00,
2013-07-03 15:35:00,83.7,74.8,30.02,SSE,147,4.0,7.0,75,0.01,,,0.04,meteohub,2013-07-03 19:35:00,
2013-07-03 15:40:00,78.4,72.9,30.03,South,189,9.0,17.0,83,0.25,,,0.25,meteohub,2013-07-03 19:40:00,
2013-07-03 15:45:00,74.8,71.1,30.04,SW,221,4.0,17.0,88,0.70,,,0.70,meteohub,2013-07-03 19:45:00,
2013-07-03 15:51:00,73.9,71.4,30.04,West,260,1.0,14.0,92,0.72,,,0.73,meteohub,2013-07-03 19:51:00,
2013-07-03 15:56:00,73.9,71.8,30.04,SSE,165,1.0,14.0,93,0.86,,,0.87,meteohub,2013-07-03 19:56:00,
2013-07-03 16:02:00,73.6,71.8,30.03,SW,233,2.0,6.0,94,0.95,,,0.96,meteohub,2013-07-03 20:02:00,
2013-07-03 16:07:00,73.6,71.8,30.03,SSE,159,4.0,8.0,94,0.97,,,0.98,meteohub,2013-07-03 20:07:00,
2013-07-03 16:12:00,73.0,71.2,30.03,SE,139,3.0,8.0,94,1.00,,,1.01,meteohub,2013-07-03 20:12:00,
2013-07-03 16:17:00,72.5,70.7,30.03,SSE,158,0.0,8.0,94,1.01,,,1.02,meteohub,2013-07-03 20:17:00,
2013-07-03 16:22:00,72.1,70.3,30.02,SE,126,1.0,8.0,94,1.17,,,1.18,meteohub,2013-07-03 20:22:00,
2013-07-03 16:27:00,72.0,70.5,30.02,SE,126,1.0,8.0,95,1.19,,,1.20,meteohub,2013-07-03 20:27:00,
2013-07-03 16:32:00,72.0,70.5,30.03,SE,126,2.0,6.0,95,1.19,,,1.20,meteohub,2013-07-03 20:32:00,
2013-07-03 16:37:00,72.1,70.7,30.02,ESE,120,1.0,4.0,95,1.07,,,1.20,meteohub,2013-07-03 20:37:00,
2013-07-03 16:42:00,72.1,70.7,30.02,ESE,117,0.0,4.0,95,0.86,,,1.21,meteohub,2013-07-03 20:42:00,
2013-07-03 16:47:00,72.5,71.1,30.02,ESE,117,0.0,4.0,95,0.50,,,1.21,meteohub,2013-07-03 20:47:00,
2013-07-03 16:52:00,72.7,71.2,30.03,ESE,117,0.0,4.0,95,0.46,,,1.23,meteohub,2013-07-03 20:52:00,
2013-07-03 16:57:00,72.9,71.4,30.03,ESE,117,0.0,4.0,95,0.34,,,1.23,meteohub,2013-07-03 20:57:00,
2013-07-03 17:02:00,72.9,71.6,30.04,ESE,117,2.0,4.0,96,0.27,,,1.23,meteohub,2013-07-03 21:02:00,
2013-07-03 17:07:00,73.0,71.8,30.04,ESE,115,0.0,5.0,96,0.23,,,1.23,meteohub,2013-07-03 21:07:00,
2013-07-03 17:12:00,73.0,71.8,30.03,ESE,115,5.0,6.0,96,0.22,,,1.23,meteohub,2013-07-03 21:12:00,
2013-07-03 17:17:00,73.2,72.0,30.03,ESE,115,1.0,6.0,96,0.13,,,1.25,meteohub,2013-07-03 21:17:00,
2013-07-03 17:22:00,73.4,72.1,30.04,ESE,115,2.0,6.0,96,0.06,,,1.26,meteohub,2013-07-03 21:22:00,
2013-07-03 17:27:00,73.6,72.3,30.04,ESE,114,2.0,5.0,96,0.06,,,1.26,meteohub,2013-07-03 21:27:00,
2013-07-03 17:32:00,73.6,72.3,30.03,ESE,114,2.0,5.0,96,0.07,,,1.27,meteohub,2013-07-03 21:32:00,
2013-07-03 17:37:00,73.6,72.3,30.02,ESE,112,2.0,5.0,96,0.09,,,1.29,meteohub,2013-07-03 21:37:00,
2013-07-03 17:42:00,73.8,72.5,30.02,ESE,112,0.0,5.0,96,0.09,,,1.30,meteohub,2013-07-03 21:42:00,
2013-07-03 17:48:00,73.8,72.5,30.02,ESE,112,1.0,5.0,96,0.10,,,1.31,meteohub,2013-07-03 21:48:00,
2013-07-03 17:53:00,73.9,72.7,30.02,ESE,112,0.0,5.0,96,0.08,,,1.31,meteohub,2013-07-03 21:53:00,
2013-07-03 17:58:00,73.9,72.7,30.02,ESE,112,1.0,3.0,96,0.09,,,1.32,meteohub,2013-07-03 21:58:00,
2013-07-03 18:03:00,74.1,72.9,30.02,ESE,112,1.0,2.0,96,0.10,,,1.33,meteohub,2013-07-03 22:03:00,
2013-07-03 18:08:00,74.1,72.9,30.02,ESE,112,0.0,4.0,96,0.10,,,1.33,meteohub,2013-07-03 22:08:00,
2013-07-03 18:14:00,74.3,73.0,30.03,ESE,112,0.0,4.0,96,0.09,,,1.34,meteohub,2013-07-03 22:14:00,
2013-07-03 18:19:00,74.1,72.9,30.02,ESE,112,1.0,3.0,96,0.10,,,1.35,meteohub,2013-07-03 22:19:00,
2013-07-03 18:24:00,74.3,73.0,30.01,ESE,112,1.0,3.0,96,0.09,,,1.35,meteohub,2013-07-03 22:24:00,
2013-07-03 18:30:00,74.3,73.0,30.02,ESE,112,1.0,2.0,96,0.09,,,1.36,meteohub,2013-07-03 22:30:00,
2013-07-03 18:35:00,74.5,73.2,30.02,ESE,112,1.0,2.0,96,0.07,,,1.36,meteohub,2013-07-03 22:35:00,
2013-07-03 18:40:00,74.5,73.2,30.01,ESE,112,1.0,2.0,96,0.05,,,1.36,meteohub,2013-07-03 22:40:00,
2013-07-03 18:45:00,74.5,73.2,30.02,ESE,112,1.0,2.0,96,0.05,,,1.36,meteohub,2013-07-03 22:45:00,
2013-07-03 18:51:00,74.5,73.2,30.02,ESE,112,2.0,2.0,96,0.05,,,1.37,meteohub,2013-07-03 22:51:00,
2013-07-03 18:56:00,74.7,73.4,30.02,ESE,112,1.0,2.0,96,0.05,,,1.37,meteohub,2013-07-03 22:56:00,
2013-07-03 19:02:00,74.5,73.2,30.01,ESE,112,0.0,2.0,96,0.04,,,1.37,meteohub,2013-07-03 23:02:00,
2013-07-03 19:07:00,74.7,73.4,30.01,ESE,112,0.0,2.0,96,0.03,,,1.37,meteohub,2013-07-03 23:07:00,
2013-07-03 19:12:00,74.7,73.4,30.01,ESE,112,2.0,2.0,96,0.03,,,1.37,meteohub,2013-07-03 23:12:00,
2013-07-03 19:17:00,74.7,73.4,30.01,ESE,112,0.0,2.0,96,0.02,,,1.37,meteohub,2013-07-03 23:17:00,
2013-07-03 19:23:00,74.8,73.6,30.01,ESE,112,1.0,2.0,96,0.01,,,1.37,meteohub,2013-07-03 23:23:00,
2013-07-03 19:28:00,74.8,73.6,30.01,ESE,112,0.0,2.0,96,0.01,,,1.37,meteohub,2013-07-03 23:28:00,
2013-07-03 19:34:00,74.8,73.6,30.01,ESE,112,1.0,2.0,96,0.01,,,1.37,meteohub,2013-07-03 23:34:00,
2013-07-03 19:39:00,75.0,73.8,30.01,ESE,112,1.0,2.0,96,0.01,,,1.37,meteohub,2013-07-03 23:39:00,
2013-07-03 19:44:00,75.0,73.8,30.02,ESE,112,0.0,2.0,96,0.01,,,1.37,meteohub,2013-07-03 23:44:00,
2013-07-03 19:50:00,75.0,73.8,30.02,ESE,112,1.0,2.0,96,0.01,,,1.37,meteohub,2013-07-03 23:50:00,
2013-07-03 19:55:00,75.2,73.9,30.02,ESE,112,1.0,2.0,96,0.00,,,1.37,meteohub,2013-07-03 23:55:00,
2013-07-03 20:01:00,75.0,73.8,30.02,ESE,112,0.0,2.0,96,0.00,,,1.37,meteohub,2013-07-04 00:01:00,
2013-07-03 20:06:00,75.0,73.8,30.03,ESE,112,1.0,2.0,96,0.00,,,1.37,meteohub,2013-07-04 00:06:00,
2013-07-03 20:11:00,75.0,73.8,30.03,ESE,112,1.0,3.0,96,0.00,,,1.37,meteohub,2013-07-04 00:11:00,
2013-07-03 20:16:00,75.0,73.8,30.04,ESE,112,2.0,3.0,96,0.00,,,1.37,meteohub,2013-07-04 00:16:00,
2013-07-03 20:21:00,75.0,73.8,30.03,ESE,112,1.0,3.0,96,0.00,,,1.37,meteohub,2013-07-04 00:21:00,
2013-07-03 20:26:00,75.2,73.9,30.03,ESE,112,2.0,3.0,96,0.00,,,1.37,meteohub,2013-07-04 00:26:00,
2013-07-03 20:32:00,75.2,73.9,30.02,ESE,112,1.0,2.0,96,0.00,,,1.37,meteohub,2013-07-04 00:32:00,
2013-07-03 20:37:00,75.2,73.9,30.02,ESE,112,2.0,2.0,96,0.00,,,1.37,meteohub,2013-07-04 00:37:00,
2013-07-03 20:42:00,75.4,74.1,30.02,ESE,112,2.0,2.0,96,0.00,,,1.37,meteohub,2013-07-04 00:42:00,
2013-07-03 20:47:00,75.4,74.1,30.03,ESE,112,2.0,3.0,96,0.00,,,1.37,meteohub,2013-07-04 00:47:00,
2013-07-03 20:52:00,75.4,74.1,30.03,ESE,112,2.0,3.0,96,0.00,,,1.37,meteohub,2013-07-04 00:52:00,
2013-07-03 20:57:00,75.4,74.1,30.03,ESE,112,2.0,3.0,96,0.00,,,1.37,meteohub,2013-07-04 00:57:00,
2013-07-03 21:02:00,75.4,74.1,30.03,ESE,112,0.0,3.0,96,0.00,,,1.37,meteohub,2013-07-04 01:02:00,
2013-07-03 21:07:00,75.2,73.9,30.03,ESE,112,0.0,3.0,96,0.00,,,1.37,meteohub,2013-07-04 01:07:00,
2013-07-03 21:12:00,75.0,73.8,30.03,ESE,112,1.0,3.0,96,0.00,,,1.37,meteohub,2013-07-04 01:12:00,
2013-07-03 21:17:00,75.0,73.8,30.03,ESE,112,1.0,3.0,96,0.00,,,1.37,meteohub,2013-07-04 01:17:00,
2013-07-03 21:22:00,75.0,73.8,30.03,ESE,112,1.0,3.0,96,0.00,,,1.37,meteohub,2013-07-04 01:22:00,
2013-07-03 21:27:00,75.0,73.8,30.03,ESE,112,2.0,3.0,96,0.00,,,1.37,meteohub,2013-07-04 01:27:00,
2013-07-03 21:32:00,74.8,73.6,30.03,ESE,112,2.0,3.0,96,0.00,,,1.37,meteohub,2013-07-04 01:32:00,
2013-07-03 21:38:00,74.8,73.6,30.03,ESE,112,2.0,3.0,96,0.00,,,1.37,meteohub,2013-07-04 01:38:00,
2013-07-03 21:43:00,74.7,73.4,30.04,ESE,112,2.0,4.0,96,0.00,,,1.37,meteohub,2013-07-04 01:43:00,
2013-07-03 21:48:00,74.7,73.4,30.04,ESE,112,2.0,4.0,96,0.00,,,1.37,meteohub,2013-07-04 01:48:00,
2013-07-03 21:54:00,74.7,73.4,30.04,ESE,112,2.0,3.0,96,0.00,,,1.37,meteohub,2013-07-04 01:54:00,
2013-07-03 21:59:00,74.7,73.4,30.05,ESE,112,0.0,3.0,96,0.00,,,1.37,meteohub,2013-07-04 01:59:00,
2013-07-03 22:04:00,74.7,73.4,30.05,ESE,112,2.0,3.0,96,0.00,,,1.37,meteohub,2013-07-04 02:04:00,
2013-07-03 22:09:00,74.7,73.4,30.05,ESE,112,1.0,3.0,96,0.00,,,1.37,meteohub,2013-07-04 02:09:00,
2013-07-03 22:14:00,74.7,73.4,30.05,ESE,112,2.0,3.0,96,0.00,,,1.37,meteohub,2013-07-04 02:14:00,
2013-07-03 22:20:00,74.5,73.2,30.05,ESE,112,2.0,4.0,96,0.00,,,1.37,meteohub,2013-07-04 02:20:00,
2013-07-03 22:25:00,74.5,73.2,30.06,ESE,112,1.0,4.0,96,0.00,,,1.37,meteohub,2013-07-04 02:25:00,
2013-07-03 22:31:00,74.5,73.2,30.05,ESE,112,1.0,3.0,96,0.00,,,1.37,meteohub,2013-07-04 02:31:00,
2013-07-03 22:36:00,74.7,73.4,30.05,ESE,112,1.0,3.0,96,0.00,,,1.37,meteohub,2013-07-04 02:36:00,
2013-07-03 22:41:00,74.7,73.4,30.05,ESE,112,0.0,3.0,96,0.00,,,1.37,meteohub,2013-07-04 02:41:00,
2013-07-03 22:47:00,74.7,73.4,30.06,ESE,112,2.0,3.0,96,0.00,,,1.37,meteohub,2013-07-04 02:47:00,
2013-07-03 22:52:00,74.5,73.2,30.06,SSE,148,3.0,3.0,96,0.00,,,1.37,meteohub,2013-07-04 02:52:00,
2013-07-03 22:57:00,74.7,73.4,30.06,SE,146,1.0,4.0,96,0.00,,,1.37,meteohub,2013-07-04 02:57:00,
2013-07-03 23:02:00,74.7,73.4,30.06,SE,134,2.0,4.0,96,0.00,,,1.37,meteohub,2013-07-04 03:02:00,
2013-07-03 23:08:00,74.7,73.4,30.06,SE,136,3.0,5.0,96,0.00,,,1.37,meteohub,2013-07-04 03:08:00,
2013-07-03 23:13:00,74.7,73.4,30.06,ESE,105,2.0,5.0,96,0.00,,,1.37,meteohub,2013-07-04 03:13:00,
2013-07-03 23:18:00,74.7,73.4,30.06,ESE,119,2.0,5.0,96,0.00,,,1.37,meteohub,2013-07-04 03:18:00,
2013-07-03 23:23:00,74.7,73.4,30.06,SE,137,1.0,4.0,96,0.00,,,1.37,meteohub,2013-07-04 03:23:00,
2013-07-03 23:29:00,74.7,73.4,30.06,SE,132,1.0,4.0,96,0.00,,,1.37,meteohub,2013-07-04 03:29:00,
2013-07-03 23:34:00,74.7,73.4,30.06,SE,132,0.0,5.0,96,0.00,,,1.37,meteohub,2013-07-04 03:34:00,
2013-07-03 23:39:00,74.7,73.4,30.07,SE,132,2.0,5.0,96,0.00,,,1.37,meteohub,2013-07-04 03:39:00,
2013-07-03 23:45:00,74.7,73.4,30.07,SE,132,1.0,5.0,96,0.00,,,1.37,meteohub,2013-07-04 03:45:00,
2013-07-03 23:50:00,74.5,73.2,30.07,SE,132,2.0,3.0,96,0.00,,,1.37,meteohub,2013-07-04 03:50:00,
2013-07-03 23:55:00,74.5,73.2,30.07,SE,132,1.0,3.0,96,0.00,,,1.37,meteohub,2013-07-04 03:55:00,